Etusivu
METAR-TAF:

METAR-TAF

Lentoasemat :

Chengdu Shuangliun kansainvälinen lentoasema

Chengdu, Kiina

Leveyspiiri: 30-40N, Pituuspiiri: 104-01E, korkeus merenpinnasta: 508 m

Tämänhetkinen sää

Tämä raportti tehtiin 56 minuuttia sitten, kello 16.00 UTC
Tuuli 6 kn etelästä, vaihdellen idän/kaakon ja lounaan välillä
Lämpötila 22°C
Kosteus 69%
Ilmanpaine 1016 hPa
Näkyvyys 10 km tai enemmän
ei pilviä alle 1500 m:ssä eikä cumulonimbus-pilviä

METAR: ZUUU 211600Z 18003MPS 120V220 CAVOK 22/16 Q1016 NOSIG

Aika: 00:56 (16:56 UTC)

Sääennuste

Tämä raportti tehtiin 8 tuntia ja 50 minuuttia sitten, kello 08.06 UTC
Ennuste voimassa 21. päivästä klo 12 UTC - 22. päivään klo 12 UTC
Tuuli 6 kn etelästä/lounaasta
Näkyvyys: 6000 m
Hajanaisia pilviä 5000 ft:n korkeudessa

TAF: ZUUU 210806Z 2112/2212 20003MPS 6000 SCT050 TX29/2207Z TN19/2122Z

Säähavainnot ja -ennusteet yli 4000 lentoasemalta (METAR- ja TAF-raportit).

Käytössä olevat sääasemat on merkitty karttaan keltaisilla ja punaisilla pisteillä.

Aseta hiiri pisteen päälle nähdäksesi sääaseman nimen.

Klikkaa sitten nähdäksesi säähavainnot ja -ennusteet.

Kartan vaihtaminen: klikkaa mustalla rastilla varustettuja vihreitä pisteitä, niin voit zoomata sisään; viivalla varustettua vihreää pistettä, niin voit zoomata ulos tai vihreitä nuolia, niin pääset viereisille kartoille.


METAR-TAF: